createdAt,value
2018-05-21T00:02:18.147Z,33.95
2018-05-21T00:04:45.660Z,13.33
2018-05-21T00:07:15.320Z,15.27
2018-05-21T00:09:43.716Z,15.60
2018-05-21T00:12:11.245Z,16.30
2018-05-21T00:14:39.527Z,13.73
2018-05-21T00:17:07.884Z,14.73
2018-05-21T00:19:35.755Z,16.42
2018-05-21T00:22:04.049Z,19.20
2018-05-21T00:24:32.325Z,16.70
2018-05-21T00:26:59.854Z,17.93
2018-05-21T00:29:27.439Z,16.23
2018-05-21T00:31:55.043Z,16.73
2018-05-21T00:34:22.569Z,15.13
2018-05-21T00:36:50.108Z,13.30
2018-05-21T00:39:17.690Z,15.27
2018-05-21T00:41:45.207Z,13.63
2018-05-21T00:44:13.657Z,14.53
2018-05-21T00:46:41.591Z,20.43
2018-05-21T00:49:09.125Z,17.53
2018-05-21T00:51:37.410Z,14.50
2018-05-21T00:54:05.755Z,13.07
2018-05-21T00:56:33.281Z,15.20
2018-05-21T00:59:00.800Z,18.03
2018-05-21T01:01:29.115Z,15.30
2018-05-21T01:03:56.651Z,15.60
2018-05-21T01:06:24.171Z,15.40
2018-05-21T01:08:51.760Z,14.87
2018-05-21T01:11:20.062Z,15.30
2018-05-21T01:13:47.584Z,14.37
2018-05-21T01:16:16.450Z,14.68
2018-05-21T01:18:43.971Z,15.93
2018-05-21T01:21:12.014Z,16.63
2018-05-21T01:23:40.318Z,14.57
2018-05-21T01:26:07.835Z,15.60
2018-05-21T01:28:36.139Z,14.17
2018-05-21T01:31:04.020Z,17.70
2018-05-21T01:33:31.543Z,18.90
2018-05-21T01:35:59.832Z,14.20
2018-05-21T01:38:27.741Z,17.20
2018-05-21T01:40:55.305Z,16.03
2018-05-21T01:43:22.853Z,19.10
2018-05-21T01:45:50.410Z,14.63
2018-05-21T01:48:17.932Z,13.43
2018-05-21T01:50:45.462Z,15.52
2018-05-21T01:53:25.059Z,15.18
2018-05-21T01:59:05.020Z,15.00
2018-05-21T02:01:32.549Z,15.80
2018-05-21T02:04:00.067Z,25.73
2018-05-21T02:06:27.617Z,15.37
2018-05-21T02:08:55.187Z,19.27
2018-05-21T02:11:22.752Z,15.87
2018-05-21T02:13:50.679Z,15.87
2018-05-21T02:16:18.198Z,16.43
2018-05-21T02:18:45.715Z,16.87
2018-05-21T02:21:15.268Z,14.13
2018-05-21T02:23:42.843Z,15.90
2018-05-21T02:26:10.364Z,14.70
2018-05-21T02:28:37.919Z,14.73
2018-05-21T02:31:05.475Z,15.10
2018-05-21T02:33:33.009Z,13.60
2018-05-21T02:36:01.190Z,17.02
2018-05-21T02:38:28.750Z,18.95
2018-05-21T02:40:56.293Z,17.57
2018-05-21T02:43:23.986Z,18.17
2018-05-21T02:45:51.529Z,18.03
2018-05-21T02:48:19.066Z,17.03
2018-05-21T02:50:46.619Z,15.43
2018-05-21T02:53:24.545Z,13.73
2018-05-21T02:59:35.949Z,17.33
2018-05-21T03:02:03.478Z,15.13
2018-05-21T03:04:31.016Z,15.20
2018-05-21T03:06:59.347Z,17.50
2018-05-21T03:09:26.879Z,15.77
2018-05-21T03:11:54.409Z,15.03
2018-05-21T03:14:21.959Z,19.90
2018-05-21T03:16:49.492Z,14.25
2018-05-21T03:19:17.026Z,16.07
2018-05-21T03:21:44.922Z,15.13
2018-05-21T03:24:12.454Z,15.43
2018-05-21T03:26:39.965Z,15.83
2018-05-21T03:29:08.286Z,17.03
2018-05-21T03:31:35.806Z,16.27
2018-05-21T03:34:03.327Z,19.03
2018-05-21T03:36:30.891Z,14.77
2018-05-21T03:38:58.435Z,15.68
2018-05-21T03:41:25.946Z,14.73
2018-05-21T03:43:54.044Z,15.98
2018-05-21T03:46:21.583Z,16.63
2018-05-21T03:48:49.182Z,16.57
2018-05-21T03:51:17.504Z,15.83
2018-05-21T03:53:45.019Z,20.40
2018-05-21T03:56:12.535Z,20.20
2018-05-21T03:58:51.901Z,17.67
2018-05-21T04:01:31.198Z,17.08
2018-05-21T04:03:58.798Z,17.33
2018-05-21T04:06:26.343Z,16.93
2018-05-21T04:08:54.639Z,16.93
2018-05-21T04:11:22.223Z,18.50
2018-05-21T04:13:49.738Z,20.23
2018-05-21T04:16:17.267Z,18.00
2018-05-21T04:18:44.883Z,15.90
2018-05-21T04:21:14.031Z,21.47
2018-05-21T04:23:42.450Z,20.53
2018-05-21T04:26:10.403Z,17.30
2018-05-21T04:28:37.932Z,16.27
2018-05-21T04:31:05.495Z,18.02
2018-05-21T04:33:33.048Z,15.90
2018-05-21T04:36:01.355Z,16.93
2018-05-21T04:38:28.913Z,19.90
2018-05-21T04:40:56.474Z,15.93
2018-05-21T04:43:23.986Z,16.80
2018-05-21T04:45:51.517Z,16.83
2018-05-21T04:48:19.151Z,18.93
2018-05-21T04:50:46.688Z,19.30
2018-05-21T04:53:15.487Z,23.75
2018-05-21T04:55:43.053Z,15.77
2018-05-21T04:58:10.585Z,20.20
2018-05-21T05:00:38.222Z,17.00
2018-05-21T05:03:05.779Z,16.83
2018-05-21T05:05:33.302Z,20.65
2018-05-21T05:08:00.823Z,16.70
2018-05-21T05:10:29.107Z,17.23
2018-05-21T05:12:56.630Z,26.10
2018-05-21T05:15:24.152Z,16.90
2018-05-21T05:17:51.699Z,16.80
2018-05-21T05:20:19.333Z,16.87
2018-05-21T05:22:46.887Z,16.60
2018-05-21T05:25:16.727Z,21.98
2018-05-21T05:27:44.286Z,15.70
2018-05-21T05:30:11.825Z,22.30
2018-05-21T05:32:39.536Z,19.43
2018-05-21T05:35:07.059Z,16.57
2018-05-21T05:37:34.581Z,15.97
2018-05-21T05:40:02.141Z,17.17
2018-05-21T05:42:30.447Z,16.20
2018-05-21T05:44:57.969Z,20.00
2018-05-21T05:47:25.556Z,15.45
2018-05-21T05:49:53.096Z,14.93
2018-05-21T05:52:21.378Z,13.67
2018-05-21T05:54:49.380Z,11.73
2018-05-21T05:57:16.927Z,12.10
2018-05-21T05:59:44.455Z,11.65
2018-05-21T06:02:12.009Z,11.33
2018-05-21T06:04:39.627Z,12.00
2018-05-21T06:07:07.150Z,9.33
2018-05-21T06:09:34.698Z,12.10
2018-05-21T06:12:02.984Z,9.33
2018-05-21T06:14:31.319Z,10.20
2018-05-21T06:16:59.572Z,9.00
2018-05-21T06:19:27.142Z,9.67
2018-05-21T06:21:55.551Z,9.47
2018-05-21T06:24:23.244Z,9.63
2018-05-21T06:26:51.193Z,9.20
2018-05-21T06:29:19.494Z,9.57
2018-05-21T06:31:47.073Z,8.70
2018-05-21T06:34:16.605Z,8.90
2018-05-21T06:36:44.107Z,8.77
2018-05-21T06:39:12.107Z,9.03
2018-05-21T06:41:39.631Z,8.33
2018-05-21T06:44:07.935Z,8.43
2018-05-21T06:46:35.516Z,8.63
2018-05-21T06:49:03.178Z,9.17
2018-05-21T06:51:30.797Z,8.02
2018-05-21T06:53:58.429Z,9.03
2018-05-21T06:56:25.959Z,7.97
2018-05-21T06:58:53.671Z,7.97
2018-05-21T07:01:21.444Z,7.65
2018-05-21T07:03:48.963Z,7.77
2018-05-21T07:06:16.510Z,7.32
2018-05-21T07:08:44.140Z,6.90
2018-05-21T07:11:11.667Z,9.03
2018-05-21T07:13:39.971Z,10.17
2018-05-21T07:16:07.548Z,8.18
2018-05-21T07:18:35.091Z,8.07
2018-05-21T07:21:02.694Z,7.80
2018-05-21T07:23:30.608Z,7.80
2018-05-21T07:25:58.207Z,6.50
2018-05-21T07:28:26.228Z,8.60
2018-05-21T07:30:53.961Z,6.80
2018-05-21T07:33:21.537Z,7.33
2018-05-21T07:35:49.815Z,7.40
2018-05-21T07:38:18.157Z,7.70
2018-05-21T07:40:45.688Z,6.67
2018-05-21T07:43:14.623Z,5.47
2018-05-21T07:45:42.759Z,6.87
2018-05-21T07:48:10.267Z,5.97
2018-05-21T07:50:37.780Z,6.07
2018-05-21T07:53:05.383Z,6.17
2018-05-21T07:55:32.941Z,5.82
2018-05-21T07:58:00.523Z,6.23
2018-05-21T08:00:28.071Z,5.60
2018-05-21T08:02:55.719Z,6.40
2018-05-21T08:05:23.429Z,6.87
2018-05-21T08:07:51.351Z,7.10
2018-05-21T08:10:19.439Z,12.10
2018-05-21T08:12:47.103Z,5.80
2018-05-21T08:15:17.266Z,5.90
2018-05-21T08:17:45.007Z,6.47
2018-05-21T08:20:13.614Z,5.40
2018-05-21T08:22:42.003Z,5.77
2018-05-21T08:25:09.609Z,5.17
2018-05-21T08:27:37.164Z,5.23
2018-05-21T08:30:05.837Z,5.07
2018-05-21T08:32:34.261Z,5.32
2018-05-21T08:35:01.898Z,5.30
2018-05-21T08:37:29.475Z,5.17
2018-05-21T08:39:57.029Z,5.60
2018-05-21T08:42:24.575Z,4.50
2018-05-21T08:44:52.131Z,5.77
2018-05-21T08:47:19.663Z,5.65
2018-05-21T08:49:47.939Z,4.80
2018-05-21T08:52:16.552Z,5.05
2018-05-21T08:54:44.018Z,4.57
2018-05-21T08:57:11.533Z,4.60
2018-05-21T08:59:39.083Z,4.40
2018-05-21T09:02:06.616Z,4.37
2018-05-21T09:04:34.134Z,4.63
2018-05-21T09:07:01.736Z,4.00
2018-05-21T09:09:29.265Z,3.97
2018-05-21T09:11:56.779Z,4.10
2018-05-21T09:14:25.620Z,5.05
2018-05-21T09:16:53.152Z,5.20
2018-05-21T09:19:20.675Z,4.80
2018-05-21T09:21:48.223Z,4.90
2018-05-21T09:24:16.392Z,4.53
2018-05-21T09:26:43.971Z,5.20
2018-05-21T09:29:12.311Z,4.37
2018-05-21T09:31:40.327Z,6.90
2018-05-21T09:34:07.965Z,4.83
2018-05-21T09:36:36.401Z,5.03
2018-05-21T09:39:03.998Z,5.00
2018-05-21T09:41:32.306Z,5.00
2018-05-21T09:43:59.858Z,4.73
2018-05-21T09:46:27.373Z,5.07
2018-05-21T09:48:54.973Z,5.47
2018-05-21T09:51:22.527Z,4.50
2018-05-21T09:53:50.059Z,4.20
2018-05-21T09:56:17.570Z,4.63
2018-05-21T09:58:46.084Z,5.00
2018-05-21T10:01:25.828Z,4.87
2018-05-21T10:18:02.159Z,5.63
2018-05-21T10:20:29.694Z,7.17
2018-05-21T10:22:57.251Z,7.13
2018-05-21T10:25:24.843Z,8.93
2018-05-21T10:27:52.434Z,10.70
2018-05-21T10:30:19.927Z,7.28
2018-05-21T10:32:47.952Z,8.50
2018-05-21T10:35:16.438Z,8.63
2018-05-21T10:37:44.120Z,9.53
2018-05-21T10:40:12.400Z,9.10
2018-05-21T10:42:39.987Z,7.47
2018-05-21T10:45:08.276Z,6.00
2018-05-21T10:47:35.814Z,7.17
2018-05-21T10:50:03.348Z,7.80
2018-05-21T10:52:33.112Z,8.23
2018-05-21T10:55:02.048Z,10.43
2018-05-21T10:57:29.638Z,8.80
2018-05-21T10:59:57.099Z,8.73
2018-05-21T11:02:25.472Z,9.45
2018-05-21T11:04:53.041Z,7.70
2018-05-21T11:07:21.346Z,7.97
2018-05-21T11:09:48.887Z,7.57
2018-05-21T11:12:16.446Z,8.87
2018-05-21T11:14:44.025Z,9.83
2018-05-21T11:17:11.585Z,11.77
2018-05-21T11:19:39.108Z,10.00
2018-05-21T11:22:07.457Z,24.43
2018-05-21T11:24:36.115Z,11.10
2018-05-21T11:27:03.663Z,8.50
2018-05-21T11:29:31.171Z,9.60
2018-05-21T11:31:58.831Z,10.17
2018-05-21T11:34:26.489Z,7.90
2018-05-21T11:36:54.016Z,11.00
2018-05-21T11:39:21.567Z,7.55
2018-05-21T11:41:49.088Z,7.93
2018-05-21T11:44:17.396Z,8.50
2018-05-21T11:46:45.125Z,7.70
2018-05-21T11:49:14.334Z,8.33
2018-05-21T11:51:41.896Z,9.20
2018-05-21T11:54:09.477Z,9.52
2018-05-21T11:56:37.008Z,8.20
2018-05-21T11:59:04.539Z,8.57
2018-05-21T12:01:32.107Z,8.85
2018-05-21T12:04:00.418Z,11.10
2018-05-21T12:06:28.703Z,7.18
2018-05-21T12:08:56.299Z,12.60
2018-05-21T12:11:23.858Z,9.10
2018-05-21T12:13:51.402Z,7.93
2018-05-21T12:16:18.979Z,10.40
2018-05-21T12:18:46.604Z,8.80
2018-05-21T12:21:16.747Z,7.93
2018-05-21T12:23:44.303Z,8.73
2018-05-21T12:26:11.831Z,7.87
2018-05-21T12:28:39.445Z,8.50
2018-05-21T12:31:07.230Z,8.47
2018-05-21T12:33:34.748Z,7.40
2018-05-21T12:36:02.975Z,7.23
2018-05-21T12:38:30.567Z,6.97
2018-05-21T12:40:58.087Z,7.47
2018-05-21T12:43:25.761Z,7.63
2018-05-21T12:45:53.319Z,7.77
2018-05-21T12:48:20.841Z,8.13
2018-05-21T12:50:48.355Z,8.07
2018-05-21T12:53:16.451Z,8.00
2018-05-21T12:55:43.999Z,14.10
2018-05-21T12:58:11.515Z,7.80
2018-05-21T13:00:39.073Z,7.80
2018-05-21T13:03:07.370Z,8.10
2018-05-21T13:05:34.908Z,8.13
2018-05-21T13:08:02.464Z,7.43
2018-05-21T13:10:30.744Z,10.80
2018-05-21T13:12:58.274Z,6.90
2018-05-21T13:15:26.131Z,6.67
2018-05-21T13:17:53.664Z,7.90
2018-05-21T13:20:21.199Z,7.37
2018-05-21T13:22:49.554Z,10.70
2018-05-21T13:25:17.080Z,6.70
2018-05-21T13:27:44.609Z,7.53
2018-05-21T13:30:12.191Z,7.37
2018-05-21T13:32:39.725Z,7.33
2018-05-21T13:35:07.369Z,6.33
2018-05-21T13:37:35.551Z,6.70
2018-05-21T13:40:03.164Z,6.37
2018-05-21T13:42:31.454Z,7.37
2018-05-21T13:44:59.020Z,6.33
2018-05-21T13:47:27.363Z,6.70
2018-05-21T13:49:55.687Z,6.80
2018-05-21T13:52:23.374Z,6.78
2018-05-21T13:54:50.844Z,6.67
2018-05-21T13:57:18.389Z,6.53
2018-05-21T13:59:45.959Z,6.43
2018-05-21T14:02:15.353Z,7.33
2018-05-21T14:04:42.886Z,6.47
2018-05-21T14:07:10.459Z,6.55
2018-05-21T14:09:37.979Z,7.43
2018-05-21T14:12:06.284Z,9.13
2018-05-21T14:14:33.925Z,6.63
2018-05-21T14:17:01.571Z,6.20
2018-05-21T14:19:29.866Z,6.40
2018-05-21T14:21:57.668Z,7.10
2018-05-21T14:24:25.189Z,6.00
2018-05-21T14:26:53.213Z,6.23
2018-05-21T14:29:21.592Z,5.63
2018-05-21T14:31:49.148Z,11.03
2018-05-21T14:34:16.682Z,6.83
2018-05-21T14:36:44.261Z,7.40
2018-05-21T14:39:12.099Z,8.70
2018-05-21T14:41:39.664Z,6.97
2018-05-21T14:44:07.583Z,9.67
2018-05-21T14:46:35.911Z,7.37
2018-05-21T14:49:03.460Z,10.88
2018-05-21T14:51:31.200Z,9.97
2018-05-21T14:53:58.750Z,7.03
2018-05-21T14:56:27.089Z,7.70
2018-05-21T14:58:54.656Z,7.83
2018-05-21T15:01:22.184Z,6.75
2018-05-21T15:03:49.715Z,6.13
2018-05-21T15:06:17.342Z,7.27
2018-05-21T15:08:44.897Z,9.13
2018-05-21T15:11:12.427Z,9.40
2018-05-21T15:13:40.003Z,7.13
2018-05-21T15:16:07.717Z,7.90
2018-05-21T15:18:35.217Z,7.10
2018-05-21T15:21:02.765Z,6.43
2018-05-21T15:23:30.299Z,6.90
2018-05-21T15:25:57.814Z,6.07
2018-05-21T15:28:25.507Z,9.70
2018-05-21T15:30:53.067Z,7.87
2018-05-21T15:33:21.458Z,6.57
2018-05-21T15:35:49.039Z,4.97
2018-05-21T15:38:16.580Z,4.33
2018-05-21T15:40:44.538Z,4.70
2018-05-21T15:43:12.182Z,15.63
2018-05-21T15:45:40.498Z,5.03
2018-05-21T15:48:08.022Z,4.73
2018-05-21T15:50:36.757Z,5.70
2018-05-21T15:53:04.314Z,5.43
2018-05-21T15:55:31.866Z,6.10
2018-05-21T15:57:59.436Z,9.43
2018-05-21T16:00:26.963Z,8.23
2018-05-21T16:02:54.639Z,11.07
2018-05-21T16:05:22.364Z,13.70
2018-05-21T16:07:50.767Z,12.30
2018-05-21T16:10:18.320Z,16.40
2018-05-21T16:12:45.929Z,16.37
2018-05-21T16:15:14.590Z,10.35
2018-05-21T16:17:42.119Z,14.97
2018-05-21T16:20:10.436Z,11.10
2018-05-21T16:22:38.034Z,14.50
2018-05-21T16:25:06.367Z,9.87
2018-05-21T16:27:33.917Z,10.43
2018-05-21T16:30:01.463Z,9.70
2018-05-21T16:32:28.988Z,9.03
2018-05-21T16:34:56.821Z,10.47
2018-05-21T16:37:24.337Z,9.17
2018-05-21T16:39:52.638Z,11.03
2018-05-21T16:42:20.328Z,9.35
2018-05-21T16:44:47.858Z,10.03
2018-05-21T16:47:16.410Z,8.52
2018-05-21T16:49:43.950Z,7.50
2018-05-21T16:52:12.260Z,7.50
2018-05-21T16:54:39.792Z,8.70
2018-05-21T16:57:08.470Z,7.40
2018-05-21T16:59:36.752Z,5.47
2018-05-21T17:02:04.268Z,5.90
2018-05-21T17:04:31.838Z,8.37
2018-05-21T17:06:59.396Z,6.30
2018-05-21T17:09:26.924Z,9.10
2018-05-21T17:11:54.467Z,8.05
2018-05-21T17:14:22.004Z,6.60
2018-05-21T17:16:50.339Z,6.60
2018-05-21T17:19:17.952Z,6.30
2018-05-21T17:21:45.483Z,9.63
2018-05-21T17:24:14.651Z,8.70
2018-05-21T17:26:42.209Z,10.17
2018-05-21T17:29:09.746Z,7.70
2018-05-21T17:31:37.259Z,8.23
2018-05-21T17:34:04.830Z,6.90
2018-05-21T17:36:33.111Z,6.80
2018-05-21T17:39:01.447Z,6.43
2018-05-21T17:41:30.531Z,10.07
2018-05-21T17:43:58.383Z,7.67
2018-05-21T17:46:25.998Z,8.50
2018-05-21T17:48:53.567Z,7.10
2018-05-21T17:51:21.985Z,6.70
2018-05-21T17:53:51.139Z,5.87
2018-05-21T17:56:19.572Z,5.43
2018-05-21T17:58:47.859Z,7.07
2018-05-21T18:01:15.452Z,6.30
2018-05-21T18:03:44.131Z,9.17
2018-05-21T18:06:11.689Z,7.20
2018-05-21T18:08:39.208Z,8.67
2018-05-21T18:11:06.776Z,10.67
2018-05-21T18:13:34.461Z,8.47
2018-05-21T18:16:02.050Z,8.30
2018-05-21T18:18:30.355Z,8.70
2018-05-21T18:20:57.944Z,11.47
2018-05-21T18:23:25.835Z,11.83
2018-05-21T18:25:54.502Z,11.00
2018-05-21T18:28:22.021Z,9.13
2018-05-21T18:30:49.563Z,9.93
2018-05-21T18:33:17.171Z,7.43
2018-05-21T18:35:44.833Z,13.60
2018-05-21T18:38:12.426Z,8.85
2018-05-21T18:40:40.764Z,9.73
2018-05-21T18:43:08.290Z,9.80
2018-05-21T18:45:36.285Z,10.10
2018-05-21T18:48:04.468Z,12.20
2018-05-21T18:50:32.003Z,11.10
2018-05-21T18:52:59.579Z,11.10
2018-05-21T18:55:27.162Z,11.00
2018-05-21T18:57:55.901Z,10.13
2018-05-21T19:00:23.483Z,10.57
2018-05-21T19:02:51.170Z,9.37
2018-05-21T19:05:18.706Z,10.70
2018-05-21T19:07:46.240Z,9.80
2018-05-21T19:10:25.549Z,10.57
2018-05-21T19:22:33.207Z,12.23
2018-05-21T19:25:01.491Z,15.73
2018-05-21T19:27:29.034Z,18.47
2018-05-21T19:29:57.948Z,33.63
2018-05-21T19:32:25.495Z,26.15
2018-05-21T19:34:53.047Z,20.00
2018-05-21T19:37:20.623Z,18.00
2018-05-21T19:39:48.171Z,15.00
2018-05-21T19:42:17.164Z,14.70
2018-05-21T19:44:44.738Z,13.97
2018-05-21T19:47:12.794Z,14.77
2018-05-21T19:49:40.329Z,15.03
2018-05-21T19:52:07.991Z,13.17
2018-05-21T19:54:35.560Z,14.70
2018-05-21T19:57:03.110Z,14.97
2018-05-21T19:59:30.703Z,14.53
2018-05-21T20:01:58.243Z,14.70
2018-05-21T20:04:26.531Z,15.00
2018-05-21T20:06:54.135Z,14.53
2018-05-21T20:09:21.658Z,14.97
2018-05-21T20:11:49.187Z,14.33
2018-05-21T20:14:17.745Z,14.55
2018-05-21T20:16:45.282Z,14.30
2018-05-21T20:19:24.633Z,14.43
2018-05-21T20:21:52.913Z,15.00
2018-05-21T20:24:20.448Z,16.86
2018-05-21T20:26:48.003Z,15.67
2018-05-21T20:29:17.245Z,16.90
2018-05-21T20:31:44.798Z,21.90
2018-05-21T20:34:12.876Z,17.97
2018-05-21T20:36:41.179Z,17.30
2018-05-21T20:39:08.738Z,17.00
2018-05-21T20:41:36.316Z,16.47
2018-05-21T20:44:04.002Z,17.17
2018-05-21T20:46:31.555Z,15.30
2018-05-21T20:48:59.796Z,15.40
2018-05-21T20:51:27.330Z,19.13
2018-05-21T20:53:55.746Z,15.90
2018-05-21T20:56:24.071Z,17.60
2018-05-21T20:58:51.610Z,16.20
2018-05-21T21:01:19.221Z,16.83
2018-05-21T21:03:46.706Z,17.83
2018-05-21T21:06:15.542Z,17.52
2018-05-21T21:08:43.159Z,18.87
2018-05-21T21:11:11.535Z,18.87
2018-05-21T21:13:39.059Z,16.80
2018-05-21T21:16:07.376Z,18.60
2018-05-21T21:18:35.012Z,18.40
2018-05-21T21:21:02.585Z,15.30
2018-05-21T21:23:30.157Z,17.50
2018-05-21T21:25:57.657Z,18.80
2018-05-21T21:28:25.959Z,20.90
2018-05-21T21:30:54.243Z,19.48
2018-05-21T21:33:21.860Z,18.13
2018-05-21T21:35:50.173Z,20.03
2018-05-21T21:38:18.459Z,19.00
2018-05-21T21:40:46.193Z,18.60
2018-05-21T21:43:26.714Z,20.90
2018-05-21T21:48:48.838Z,18.37
2018-05-21T21:51:17.702Z,15.70
2018-05-21T21:53:45.223Z,21.33
2018-05-21T21:56:13.778Z,22.60
2018-05-21T21:58:41.440Z,16.67
2018-05-21T22:01:09.023Z,16.83
2018-05-21T22:03:36.574Z,21.67
2018-05-21T22:06:04.107Z,21.93
2018-05-21T22:08:31.645Z,16.20
2018-05-21T22:10:59.283Z,16.23
2018-05-21T22:13:26.807Z,12.60
2018-05-21T22:15:54.334Z,12.27
2018-05-21T22:18:22.196Z,12.25
2018-05-21T22:20:49.753Z,12.37
2018-05-21T22:23:17.347Z,11.67
2018-05-21T22:25:44.935Z,11.13
2018-05-21T22:28:12.459Z,10.95
2018-05-21T22:30:39.974Z,11.57
2018-05-21T22:33:07.865Z,10.82
2018-05-21T22:35:35.818Z,15.32
2018-05-21T22:38:04.159Z,12.00
2018-05-21T22:40:32.305Z,13.17
2018-05-21T22:42:59.824Z,12.00
2018-05-21T22:45:28.104Z,10.97
2018-05-21T22:47:56.414Z,13.00
2018-05-21T22:50:23.942Z,14.80
2018-05-21T22:52:51.778Z,11.82
2018-05-21T22:55:19.322Z,11.60
2018-05-21T22:57:46.848Z,12.63
2018-05-21T23:00:16.446Z,12.32
2018-05-21T23:02:44.329Z,12.20
2018-05-21T23:05:11.855Z,12.00
2018-05-21T23:07:39.388Z,11.52
2018-05-21T23:10:06.973Z,12.47
2018-05-21T23:12:34.509Z,12.33
2018-05-21T23:15:02.037Z,13.20
2018-05-21T23:17:29.591Z,13.50
2018-05-21T23:19:57.135Z,17.50
2018-05-21T23:22:37.070Z,16.27
2018-05-21T23:25:05.378Z,20.77
2018-05-21T23:27:34.031Z,15.87
2018-05-21T23:30:01.580Z,14.57
2018-05-21T23:32:29.144Z,15.10
2018-05-21T23:34:56.722Z,13.87
2018-05-21T23:37:24.259Z,14.70
2018-05-21T23:39:51.790Z,14.83
2018-05-21T23:42:19.343Z,14.43
2018-05-21T23:44:47.207Z,16.00
2018-05-21T23:47:17.168Z,12.75
2018-05-21T23:49:44.682Z,14.57
2018-05-21T23:52:12.222Z,16.90
2018-05-21T23:54:40.314Z,13.30
2018-05-21T23:57:07.835Z,17.73
2018-05-21T23:59:36.154Z,15.15
